createdAt,value
2017-12-12T00:01:44.271Z,0.47
2017-12-12T00:04:12.525Z,0.70
2017-12-12T00:06:41.530Z,0.53
2017-12-12T00:09:09.791Z,0.60
2017-12-12T00:11:38.798Z,0.57
2017-12-12T00:14:07.811Z,0.50
2017-12-12T00:16:36.048Z,0.50
2017-12-12T00:19:05.072Z,0.40
2017-12-12T00:21:33.314Z,0.60
2017-12-12T00:24:01.578Z,0.50
2017-12-12T00:26:29.810Z,0.50
2017-12-12T00:28:58.058Z,0.60
2017-12-12T00:31:27.065Z,0.40
2017-12-12T00:33:55.323Z,0.70
2017-12-12T00:36:24.333Z,0.40
2017-12-12T00:38:52.586Z,0.40
2017-12-12T00:41:21.599Z,0.60
2017-12-12T00:43:49.847Z,0.40
2017-12-12T00:46:18.084Z,0.50
2017-12-12T00:48:47.109Z,0.50
2017-12-12T00:51:15.361Z,0.40
2017-12-12T00:53:43.603Z,0.70
2017-12-12T00:56:11.842Z,0.60
2017-12-12T00:58:40.854Z,0.40
2017-12-12T01:01:09.107Z,0.50
2017-12-12T01:03:37.346Z,0.50
2017-12-12T01:06:05.599Z,0.40
2017-12-12T01:08:33.846Z,0.40
2017-12-12T01:11:02.867Z,0.50
2017-12-12T01:13:31.115Z,0.50
2017-12-12T01:16:00.130Z,0.40
2017-12-12T01:18:28.366Z,0.50
2017-12-12T01:20:56.626Z,0.40
2017-12-12T01:23:24.871Z,0.40
2017-12-12T01:25:53.131Z,0.40
2017-12-12T01:28:21.384Z,0.60
2017-12-12T01:30:50.394Z,0.43
2017-12-12T01:33:18.643Z,0.40
2017-12-12T01:35:46.894Z,0.50
2017-12-12T01:38:15.144Z,0.50
2017-12-12T01:40:43.384Z,0.40
2017-12-12T01:43:11.638Z,0.43
2017-12-12T01:45:39.881Z,0.53
2017-12-12T01:48:08.127Z,0.60
2017-12-12T01:50:36.373Z,0.60
2017-12-12T01:53:05.387Z,0.50
2017-12-12T01:55:33.647Z,0.50
2017-12-12T01:58:02.655Z,0.40
2017-12-12T02:00:30.910Z,0.40
2017-12-12T02:02:59.917Z,0.73
2017-12-12T02:05:28.159Z,0.43
2017-12-12T02:07:56.413Z,0.40
2017-12-12T02:10:24.645Z,0.40
2017-12-12T02:12:52.899Z,0.50
2017-12-12T02:15:21.909Z,0.60
2017-12-12T02:17:50.165Z,0.50
2017-12-12T02:20:18.411Z,0.50
2017-12-12T02:22:46.659Z,0.40
2017-12-12T02:25:14.906Z,0.50
2017-12-12T02:27:43.927Z,0.60
2017-12-12T02:30:12.171Z,0.60
2017-12-12T02:32:41.181Z,0.50
2017-12-12T02:35:09.453Z,0.70
2017-12-12T02:37:37.697Z,0.60
2017-12-12T02:40:05.944Z,0.40
2017-12-12T02:42:34.202Z,0.60
2017-12-12T02:45:02.439Z,0.70
2017-12-12T02:47:31.450Z,0.50
2017-12-12T02:49:59.706Z,0.40
2017-12-12T02:52:28.715Z,0.60
2017-12-12T02:54:56.966Z,0.43
2017-12-12T02:57:25.974Z,0.60
2017-12-12T02:59:55.002Z,0.60
2017-12-12T03:02:23.243Z,0.60
2017-12-12T03:04:52.257Z,0.40
2017-12-12T03:07:20.492Z,0.60
2017-12-12T03:09:48.751Z,0.40
2017-12-12T03:12:16.998Z,0.50
2017-12-12T03:14:45.320Z,0.40
2017-12-12T03:17:13.610Z,0.50
2017-12-12T03:19:42.087Z,0.50
2017-12-12T03:22:11.095Z,0.50
2017-12-12T03:24:39.341Z,0.50
2017-12-12T03:27:07.590Z,0.50
2017-12-12T03:29:35.855Z,0.50
2017-12-12T03:32:04.098Z,0.57
2017-12-12T03:34:32.345Z,0.60
2017-12-12T03:37:00.595Z,0.70
2017-12-12T03:39:28.832Z,0.50
2017-12-12T03:41:57.093Z,0.60
2017-12-12T03:44:26.105Z,0.47
2017-12-12T03:46:54.350Z,0.50
2017-12-12T03:49:23.375Z,0.50
2017-12-12T03:51:51.622Z,0.60
2017-12-12T03:54:20.631Z,0.60
2017-12-12T03:56:48.878Z,0.50
2017-12-12T03:59:17.888Z,0.50
2017-12-12T04:01:46.913Z,0.50
2017-12-12T04:04:15.161Z,0.60
2017-12-12T04:06:43.407Z,0.60
2017-12-12T04:09:11.658Z,0.57
2017-12-12T04:11:39.904Z,0.60
2017-12-12T04:14:08.160Z,0.80
2017-12-12T04:16:36.411Z,0.90
2017-12-12T04:19:04.662Z,0.73
2017-12-12T04:21:32.910Z,0.60
2017-12-12T04:24:01.157Z,0.90
2017-12-12T04:26:30.167Z,0.80
2017-12-12T04:28:58.418Z,1.23
2017-12-12T04:31:27.430Z,1.50
2017-12-12T04:33:55.686Z,1.20
2017-12-12T04:36:24.698Z,1.03
2017-12-12T04:38:53.713Z,1.00
2017-12-12T04:41:21.953Z,1.03
2017-12-12T04:43:50.971Z,0.93
2017-12-12T04:46:19.226Z,1.03
2017-12-12T04:48:48.247Z,1.00
2017-12-12T04:51:16.493Z,0.70
2017-12-12T04:53:45.511Z,1.00
2017-12-12T04:56:13.771Z,0.90
2017-12-12T04:58:42.023Z,1.10
2017-12-12T05:01:11.043Z,0.98
2017-12-12T05:03:39.286Z,1.30
2017-12-12T05:06:07.542Z,1.30
2017-12-12T05:08:35.790Z,1.03
2017-12-12T05:11:04.050Z,1.40
2017-12-12T05:13:32.294Z,1.10
2017-12-12T05:16:01.314Z,0.93
2017-12-12T05:18:29.559Z,1.30
2017-12-12T05:20:57.809Z,1.20
2017-12-12T05:23:26.051Z,1.47
2017-12-12T05:25:54.312Z,0.95
2017-12-12T05:28:22.604Z,1.20
2017-12-12T05:30:51.583Z,1.20
2017-12-12T05:33:19.829Z,1.20
2017-12-12T05:35:48.083Z,1.20
2017-12-12T05:38:16.326Z,1.23
2017-12-12T05:40:44.583Z,1.02
2017-12-12T05:43:12.834Z,1.48
2017-12-12T05:45:41.863Z,1.60
2017-12-12T05:48:10.119Z,1.30
2017-12-12T05:50:38.383Z,1.75
2017-12-12T05:53:07.405Z,2.07
2017-12-12T05:55:35.666Z,1.90
2017-12-12T05:58:03.912Z,1.50
2017-12-12T06:00:32.171Z,2.10
2017-12-12T06:03:00.427Z,1.50
2017-12-12T06:05:28.686Z,1.70
2017-12-12T06:07:56.937Z,1.90
2017-12-12T06:10:25.197Z,2.30
2017-12-12T06:12:53.433Z,2.20
2017-12-12T06:15:22.457Z,2.22
2017-12-12T06:17:50.697Z,1.87
2017-12-12T06:20:19.734Z,2.27
2017-12-12T06:22:47.974Z,1.60
2017-12-12T06:25:16.230Z,2.40
2017-12-12T06:27:44.461Z,2.10
2017-12-12T06:30:13.502Z,2.20
2017-12-12T06:32:41.762Z,1.73
2017-12-12T06:35:10.011Z,2.60
2017-12-12T06:37:39.033Z,2.55
2017-12-12T06:40:07.282Z,2.12
2017-12-12T06:42:36.294Z,1.73
2017-12-12T06:45:04.547Z,2.77
2017-12-12T06:47:33.567Z,2.12
2017-12-12T06:50:01.822Z,2.05
2017-12-12T06:52:30.949Z,2.33
2017-12-12T06:54:59.190Z,2.10
2017-12-12T06:57:28.218Z,1.65
2017-12-12T06:59:56.466Z,2.50
2017-12-12T07:02:24.724Z,2.50
2017-12-12T07:04:53.743Z,2.10
2017-12-12T07:07:21.992Z,1.50
2017-12-12T07:09:51.007Z,1.93
2017-12-12T07:12:20.024Z,1.57
2017-12-12T07:14:48.283Z,2.65
2017-12-12T07:17:16.554Z,2.78
2017-12-12T07:19:44.809Z,2.63
2017-12-12T07:22:14.187Z,2.37
2017-12-12T07:24:42.447Z,2.80
2017-12-12T07:27:10.925Z,2.53
2017-12-12T07:29:39.267Z,2.22
2017-12-12T07:32:07.583Z,2.60
2017-12-12T07:34:35.917Z,2.92
2017-12-12T07:37:04.249Z,1.58
2017-12-12T07:39:32.563Z,2.03
2017-12-12T07:42:01.629Z,2.80
2017-12-12T07:44:29.948Z,2.57
2017-12-12T07:46:58.275Z,1.90
2017-12-12T07:49:26.618Z,2.80
2017-12-12T07:51:54.942Z,2.25
2017-12-12T07:54:23.271Z,2.47
2017-12-12T07:56:51.600Z,2.53
2017-12-12T07:59:20.691Z,2.28
2017-12-12T08:01:49.032Z,2.00
2017-12-12T08:04:17.361Z,2.67
2017-12-12T08:06:46.491Z,2.10
2017-12-12T08:09:14.803Z,2.00
2017-12-12T08:11:43.129Z,2.60
2017-12-12T08:14:11.451Z,1.70
2017-12-12T08:16:39.782Z,2.50
2017-12-12T08:19:08.104Z,3.20
2017-12-12T08:21:37.189Z,2.37
2017-12-12T08:24:05.499Z,1.67
2017-12-12T08:26:33.839Z,2.67
2017-12-12T08:29:02.180Z,1.60
2017-12-12T08:31:30.503Z,2.28
2017-12-12T08:33:58.838Z,3.47
2017-12-12T08:36:27.193Z,2.40
2017-12-12T08:38:55.539Z,2.43
2017-12-12T08:41:23.853Z,2.60
2017-12-12T08:43:52.923Z,2.10
2017-12-12T08:46:21.251Z,1.77
2017-12-12T08:48:49.539Z,1.70
2017-12-12T08:51:17.884Z,2.30
2017-12-12T08:53:46.193Z,2.70
2017-12-12T08:56:14.531Z,1.60
2017-12-12T08:58:43.644Z,1.70
2017-12-12T09:01:11.974Z,1.63
2017-12-12T09:03:40.295Z,2.00
2017-12-12T09:06:08.631Z,2.58
2017-12-12T09:08:36.957Z,1.10
2017-12-12T09:11:05.283Z,2.17
2017-12-12T09:13:33.632Z,1.50
2017-12-12T09:16:01.960Z,1.40
2017-12-12T09:18:31.066Z,2.50
2017-12-12T09:21:00.142Z,1.80
2017-12-12T09:23:28.488Z,2.10
2017-12-12T09:25:56.818Z,2.00
2017-12-12T09:28:25.898Z,1.97
2017-12-12T09:30:54.221Z,2.10
2017-12-12T09:33:22.559Z,1.97
2017-12-12T09:35:51.648Z,1.90
2017-12-12T09:38:19.983Z,2.00
2017-12-12T09:40:48.315Z,2.00
2017-12-12T09:43:17.398Z,1.80
2017-12-12T09:45:45.710Z,1.77
2017-12-12T09:48:14.023Z,1.90
2017-12-12T09:50:42.344Z,2.10
2017-12-12T09:53:11.440Z,1.70
2017-12-12T09:55:39.750Z,2.07
2017-12-12T09:58:08.061Z,1.20
2017-12-12T10:00:36.377Z,1.00
2017-12-12T10:03:04.687Z,1.30
2017-12-12T10:05:33.027Z,1.40
2017-12-12T10:08:01.347Z,2.10
2017-12-12T10:10:29.655Z,1.93
2017-12-12T10:12:57.978Z,1.50
2017-12-12T10:15:26.290Z,1.60
2017-12-12T10:17:54.630Z,2.10
2017-12-12T10:20:22.959Z,2.47
2017-12-12T10:22:51.303Z,2.00
2017-12-12T10:25:19.615Z,2.20
2017-12-12T10:27:47.956Z,1.63
2017-12-12T10:30:16.272Z,2.20
2017-12-12T10:32:44.606Z,1.97
2017-12-12T10:35:12.911Z,1.30
2017-12-12T10:37:41.265Z,2.13
2017-12-12T10:40:09.595Z,2.47
2017-12-12T10:42:38.674Z,1.80
2017-12-12T10:45:06.970Z,1.43
2017-12-12T10:47:36.082Z,2.23
2017-12-12T10:50:04.421Z,1.63
2017-12-12T10:52:32.761Z,2.00
2017-12-12T10:55:01.090Z,1.63
2017-12-12T10:57:30.187Z,1.70
2017-12-12T10:59:59.276Z,1.67
2017-12-12T11:02:27.599Z,1.97
2017-12-12T11:04:55.906Z,1.77
2017-12-12T11:07:24.206Z,1.57
2017-12-12T11:09:52.583Z,2.10
2017-12-12T11:12:20.878Z,1.80
2017-12-12T11:14:49.964Z,0.90
2017-12-12T11:17:18.301Z,2.00
2017-12-12T11:19:46.636Z,1.77
2017-12-12T11:22:14.982Z,1.87
2017-12-12T11:24:43.294Z,1.47
2017-12-12T11:27:11.618Z,1.67
2017-12-12T11:29:39.929Z,1.90
2017-12-12T11:32:09.046Z,1.47
2017-12-12T11:34:37.373Z,1.40
2017-12-12T11:37:05.716Z,1.40
2017-12-12T11:39:34.068Z,1.93
2017-12-12T11:42:02.366Z,2.17
2017-12-12T11:44:30.681Z,2.00
2017-12-12T11:46:59.773Z,1.60
2017-12-12T11:49:28.094Z,2.10
2017-12-12T11:51:57.184Z,1.80
2017-12-12T11:54:26.291Z,1.50
2017-12-12T11:56:54.606Z,1.20
2017-12-12T11:59:22.951Z,1.90
2017-12-12T12:01:51.267Z,2.40
2017-12-12T12:04:19.591Z,1.47
2017-12-12T12:06:47.938Z,2.17
2017-12-12T12:09:16.289Z,1.60
2017-12-12T12:11:44.633Z,1.43
2017-12-12T12:14:12.974Z,2.00
2017-12-12T12:16:41.292Z,1.93
2017-12-12T12:19:09.630Z,1.83
2017-12-12T12:21:37.978Z,1.50
2017-12-12T12:24:06.313Z,1.90
2017-12-12T12:26:35.430Z,1.40
2017-12-12T12:29:03.776Z,1.43
2017-12-12T12:31:32.863Z,1.60
2017-12-12T12:34:01.956Z,1.43
2017-12-12T12:36:30.286Z,1.73
2017-12-12T12:38:58.652Z,1.27
2017-12-12T12:41:26.980Z,1.53
2017-12-12T12:43:55.259Z,1.53
2017-12-12T12:46:23.623Z,1.30
2017-12-12T12:48:51.996Z,2.30
2017-12-12T12:51:20.326Z,1.13
2017-12-12T12:53:48.662Z,1.70
2017-12-12T12:56:17.030Z,1.87
2017-12-12T12:58:45.399Z,1.57
2017-12-12T13:01:13.749Z,1.80
2017-12-12T13:03:42.046Z,1.73
2017-12-12T13:06:10.343Z,1.83
2017-12-12T13:08:39.824Z,1.97
2017-12-12T13:11:08.213Z,1.27
2017-12-12T13:13:36.556Z,1.50
2017-12-12T13:16:04.888Z,2.27
2017-12-12T13:18:33.250Z,1.50
2017-12-12T13:21:01.606Z,1.30
2017-12-12T13:23:30.680Z,1.30
2017-12-12T13:25:59.031Z,1.77
2017-12-12T13:28:27.386Z,1.40
2017-12-12T13:30:55.733Z,2.10
2017-12-12T13:33:24.112Z,1.47
2017-12-12T13:35:52.415Z,1.57
2017-12-12T13:38:20.798Z,1.57
2017-12-12T13:40:49.137Z,1.70
2017-12-12T13:43:17.446Z,0.90
2017-12-12T13:45:45.742Z,1.50
2017-12-12T13:48:14.054Z,1.50
2017-12-12T13:50:43.149Z,2.27
2017-12-12T13:53:12.261Z,1.50
2017-12-12T13:55:40.599Z,1.53
2017-12-12T13:58:08.941Z,1.30
2017-12-12T14:00:37.251Z,1.80
2017-12-12T14:03:05.590Z,1.50
2017-12-12T14:05:33.927Z,1.60
2017-12-12T14:08:03.050Z,1.83
2017-12-12T14:10:31.394Z,2.20
2017-12-12T14:13:00.488Z,1.30
2017-12-12T14:15:29.612Z,2.00
2017-12-12T14:17:57.929Z,1.70
2017-12-12T14:20:26.282Z,1.63
2017-12-12T14:22:54.668Z,2.13
2017-12-12T14:25:23.009Z,2.50
2017-12-12T14:27:52.086Z,2.70
2017-12-12T14:30:21.172Z,3.40
2017-12-12T14:32:49.519Z,1.40
2017-12-12T14:35:17.876Z,1.90
2017-12-12T14:37:46.245Z,1.90
2017-12-12T14:40:14.584Z,1.60
2017-12-12T14:42:42.903Z,1.87
2017-12-12T14:45:11.226Z,1.70
2017-12-12T14:47:39.539Z,1.40
2017-12-12T14:50:08.621Z,1.60
2017-12-12T14:52:37.694Z,1.53
2017-12-12T14:55:06.016Z,1.33
2017-12-12T14:57:34.354Z,1.50
2017-12-12T15:00:02.684Z,1.50
2017-12-12T15:02:31.019Z,1.40
2017-12-12T15:04:59.378Z,2.30
2017-12-12T15:07:27.697Z,1.30
2017-12-12T15:09:56.026Z,1.90
2017-12-12T15:12:24.351Z,1.23
2017-12-12T15:14:52.663Z,1.10
2017-12-12T15:17:20.982Z,1.83
2017-12-12T15:19:49.292Z,2.00
2017-12-12T15:22:17.660Z,1.73
2017-12-12T15:24:46.001Z,2.27
2017-12-12T15:27:14.330Z,1.60
2017-12-12T15:29:42.654Z,1.40
2017-12-12T15:32:10.986Z,2.40
2017-12-12T15:34:39.314Z,2.23
2017-12-12T15:37:07.625Z,2.55
2017-12-12T15:39:35.956Z,1.37
2017-12-12T15:42:04.259Z,1.77
2017-12-12T15:44:33.334Z,2.20
2017-12-12T15:47:01.671Z,1.65
2017-12-12T15:49:29.976Z,1.23
2017-12-12T15:51:59.068Z,1.85
2017-12-12T15:54:27.400Z,1.98
2017-12-12T15:56:55.726Z,1.90
2017-12-12T15:59:24.812Z,2.17
2017-12-12T16:01:53.145Z,1.35
2017-12-12T16:04:21.483Z,1.92
2017-12-12T16:06:49.823Z,2.10
2017-12-12T16:09:18.146Z,2.60
2017-12-12T16:11:46.468Z,1.83
2017-12-12T16:14:14.771Z,2.42
2017-12-12T16:16:43.082Z,2.12
2017-12-12T16:19:11.396Z,1.92
2017-12-12T16:21:39.729Z,1.42
2017-12-12T16:24:08.075Z,1.92
2017-12-12T16:26:36.402Z,1.77
2017-12-12T16:29:05.468Z,1.40
2017-12-12T16:31:33.807Z,1.55
2017-12-12T16:34:02.139Z,2.25
2017-12-12T16:36:30.457Z,1.40
2017-12-12T16:38:58.778Z,1.75
2017-12-12T16:41:27.078Z,2.20
2017-12-12T16:43:55.396Z,1.75
2017-12-12T16:46:23.695Z,2.00
2017-12-12T16:48:52.028Z,2.00
2017-12-12T16:51:20.374Z,2.10
2017-12-12T16:53:48.694Z,2.40
2017-12-12T16:56:17.038Z,1.62
2017-12-12T16:58:45.383Z,1.83
2017-12-12T17:01:13.704Z,1.80
2017-12-12T17:03:42.834Z,2.22
2017-12-12T17:06:11.150Z,1.77
2017-12-12T17:08:39.462Z,2.05
2017-12-12T17:11:08.539Z,2.03
2017-12-12T17:13:36.865Z,1.70
2017-12-12T17:16:05.160Z,2.17
2017-12-12T17:18:33.467Z,1.77
2017-12-12T17:21:01.774Z,2.50
2017-12-12T17:23:30.836Z,1.60
2017-12-12T17:25:59.178Z,1.67
2017-12-12T17:28:27.486Z,1.95
2017-12-12T17:30:55.814Z,2.47
2017-12-12T17:33:24.130Z,1.85
2017-12-12T17:35:53.202Z,2.30
2017-12-12T17:38:21.532Z,1.55
2017-12-12T17:40:49.844Z,2.15
2017-12-12T17:43:18.186Z,2.67
2017-12-12T17:45:46.524Z,2.25
2017-12-12T17:48:14.855Z,2.70
2017-12-12T17:50:43.936Z,2.35
2017-12-12T17:53:12.253Z,1.85
2017-12-12T17:55:40.566Z,2.87
2017-12-12T17:58:09.219Z,3.72
2017-12-12T18:00:37.584Z,3.03
2017-12-12T18:03:05.893Z,3.92
2017-12-12T18:05:34.221Z,2.20
2017-12-12T18:08:03.230Z,3.60
2017-12-12T18:10:31.734Z,2.90
2017-12-12T18:12:59.991Z,3.25
2017-12-12T18:15:28.242Z,3.42
2017-12-12T18:17:57.271Z,2.90
2017-12-12T18:20:25.511Z,2.67
2017-12-12T18:22:54.533Z,2.78
2017-12-12T18:25:22.791Z,3.53
2017-12-12T18:27:51.809Z,2.25
2017-12-12T18:30:20.060Z,2.50
2017-12-12T18:32:49.076Z,4.47
2017-12-12T18:35:17.325Z,4.00
2017-12-12T18:37:46.350Z,4.40
2017-12-12T18:40:14.609Z,3.75
2017-12-12T18:42:42.866Z,2.42
2017-12-12T18:45:11.918Z,3.35
2017-12-12T18:47:40.182Z,3.05
2017-12-12T18:50:08.431Z,2.08
2017-12-12T18:52:36.686Z,2.25
2017-12-12T18:55:09.383Z,1.95
2017-12-12T18:57:37.647Z,2.97
2017-12-12T19:00:06.673Z,2.05
2017-12-12T19:02:34.938Z,2.05
2017-12-12T19:05:03.174Z,1.42
2017-12-12T19:07:31.438Z,2.45
2017-12-12T19:09:59.687Z,2.70
2017-12-12T19:12:27.941Z,2.55
2017-12-12T19:14:56.194Z,1.95
2017-12-12T19:17:25.207Z,2.83
2017-12-12T19:19:53.461Z,2.10
2017-12-12T19:22:22.489Z,2.65
2017-12-12T19:24:50.764Z,2.00
2017-12-12T19:27:19.013Z,2.30
2017-12-12T19:29:48.038Z,1.75
2017-12-12T19:32:16.337Z,2.78
2017-12-12T19:34:44.586Z,2.25
2017-12-12T19:37:12.848Z,2.00
2017-12-12T19:39:41.116Z,1.60
2017-12-12T19:42:09.365Z,3.00
2017-12-12T19:44:37.623Z,2.33
2017-12-12T19:47:06.819Z,1.83
2017-12-12T19:49:35.206Z,2.60
2017-12-12T19:52:03.547Z,1.98
2017-12-12T19:54:31.802Z,1.33
2017-12-12T19:57:00.063Z,1.98
2017-12-12T19:59:29.280Z,1.87
2017-12-12T20:01:57.626Z,2.03
2017-12-12T20:04:26.049Z,3.40
2017-12-12T20:06:54.405Z,2.05
2017-12-12T20:09:23.482Z,2.87
2017-12-12T20:11:53.324Z,1.62
2017-12-12T20:14:22.579Z,2.60
2017-12-12T20:16:51.091Z,2.90
2017-12-12T20:19:19.330Z,2.60
2017-12-12T20:21:47.632Z,2.25
2017-12-12T20:24:16.629Z,2.15
2017-12-12T20:26:45.641Z,2.65
2017-12-12T20:29:13.942Z,3.12
2017-12-12T20:31:42.234Z,2.20
2017-12-12T20:34:10.529Z,2.42
2017-12-12T20:36:38.814Z,2.75
2017-12-12T20:39:07.102Z,2.50
2017-12-12T20:41:36.121Z,2.10
2017-12-12T20:44:04.362Z,2.50
2017-12-12T20:46:33.379Z,4.00
2017-12-12T20:49:01.682Z,3.00
2017-12-12T20:51:29.934Z,3.08
2017-12-12T20:53:58.238Z,3.78
2017-12-12T20:56:26.530Z,2.72
2017-12-12T20:58:54.800Z,2.80
2017-12-12T21:01:23.097Z,3.40
2017-12-12T21:03:51.392Z,2.55
2017-12-12T21:06:20.462Z,2.87
2017-12-12T21:08:48.753Z,2.45
2017-12-12T21:11:17.040Z,2.62
2017-12-12T21:13:46.052Z,3.00
2017-12-12T21:16:14.293Z,1.95
2017-12-12T21:18:43.378Z,2.85
2017-12-12T21:21:11.629Z,3.15
2017-12-12T21:23:39.917Z,2.45
2017-12-12T21:26:08.206Z,2.67
2017-12-12T21:28:36.455Z,2.50
2017-12-12T21:31:04.700Z,1.95
2017-12-12T21:33:33.010Z,2.40
2017-12-12T21:36:01.302Z,3.15
2017-12-12T21:38:29.597Z,1.67
2017-12-12T21:40:57.889Z,2.42
2017-12-12T21:43:26.911Z,2.72
2017-12-12T21:45:55.158Z,1.87
2017-12-12T21:48:24.212Z,2.05
2017-12-12T21:50:52.494Z,3.40
2017-12-12T21:53:20.735Z,2.10
2017-12-12T21:55:49.028Z,2.00
2017-12-12T21:58:17.273Z,2.83
2017-12-12T22:00:45.518Z,2.53
2017-12-12T22:03:14.534Z,3.00
2017-12-12T22:05:42.795Z,2.90
2017-12-12T22:08:11.803Z,2.12
2017-12-12T22:10:40.057Z,2.15
2017-12-12T22:13:09.117Z,1.50
2017-12-12T22:15:37.423Z,2.80
2017-12-12T22:18:05.731Z,2.67
2017-12-12T22:20:33.978Z,3.00
2017-12-12T22:23:03.000Z,3.62
2017-12-12T22:25:31.257Z,2.03
2017-12-12T22:28:00.280Z,3.40
2017-12-12T22:30:28.558Z,3.42
2017-12-12T22:32:56.855Z,2.90
2017-12-12T22:35:25.855Z,2.30
2017-12-12T22:37:54.088Z,3.42
2017-12-12T22:40:22.350Z,2.40
2017-12-12T22:42:51.354Z,2.30
2017-12-12T22:45:19.612Z,3.00
2017-12-12T22:47:48.616Z,2.40
2017-12-12T22:50:16.882Z,3.30
2017-12-12T22:52:45.906Z,2.30
2017-12-12T22:55:14.157Z,2.83
2017-12-12T22:57:42.419Z,1.85
2017-12-12T23:00:11.446Z,2.60
2017-12-12T23:02:39.710Z,3.70
2017-12-12T23:05:07.985Z,2.40
2017-12-12T23:07:36.243Z,3.12
2017-12-12T23:10:05.273Z,4.22
2017-12-12T23:12:33.531Z,3.25
2017-12-12T23:15:01.803Z,2.28
2017-12-12T23:17:30.063Z,2.12
2017-12-12T23:19:59.098Z,4.87
2017-12-12T23:22:27.353Z,3.60
2017-12-12T23:24:55.623Z,3.50
2017-12-12T23:27:23.882Z,3.05
2017-12-12T23:29:52.919Z,3.95
2017-12-12T23:32:21.187Z,3.33
2017-12-12T23:34:49.436Z,4.80
2017-12-12T23:37:17.707Z,3.25
2017-12-12T23:39:46.730Z,2.58
2017-12-12T23:42:14.990Z,3.80
2017-12-12T23:44:43.241Z,3.65
2017-12-12T23:47:12.275Z,3.75
2017-12-12T23:49:40.530Z,3.25
2017-12-12T23:52:08.792Z,4.28
2017-12-12T23:54:37.817Z,3.22
2017-12-12T23:57:06.082Z,4.47
2017-12-12T23:59:34.353Z,5.25
